createdAt,value
2018-11-29T00:00:54.720Z,8.10
2018-11-29T00:03:22.925Z,8.00
2018-11-29T00:05:51.173Z,8.10
2018-11-29T00:08:19.411Z,8.10
2018-11-29T00:10:47.609Z,8.00
2018-11-29T00:13:15.794Z,8.10
2018-11-29T00:15:43.985Z,8.20
2018-11-29T00:18:12.171Z,8.20
2018-11-29T00:20:40.384Z,8.20
2018-11-29T00:23:08.673Z,8.20
2018-11-29T00:25:36.877Z,8.30
2018-11-29T00:28:06.067Z,8.30
2018-11-29T00:30:34.307Z,8.40
2018-11-29T00:33:02.548Z,8.40
2018-11-29T00:35:30.834Z,8.30
2018-11-29T00:37:59.034Z,8.30
2018-11-29T00:40:27.372Z,8.30
2018-11-29T00:42:55.569Z,8.30
2018-11-29T00:45:24.365Z,8.30
2018-11-29T00:47:52.905Z,8.40
2018-11-29T00:50:21.417Z,8.40
2018-11-29T00:52:50.385Z,8.40
2018-11-29T00:55:20.561Z,8.40
2018-11-29T00:57:48.724Z,8.40
2018-11-29T01:00:20.524Z,8.40
2018-11-29T01:02:48.840Z,8.40
2018-11-29T01:05:17.005Z,8.40
2018-11-29T01:07:45.227Z,8.50
2018-11-29T01:10:14.170Z,8.50
2018-11-29T01:12:42.512Z,8.50
2018-11-29T01:15:11.784Z,8.60
2018-11-29T01:17:39.979Z,8.60
2018-11-29T01:20:11.142Z,8.50
2018-11-29T01:22:39.381Z,8.50
2018-11-29T01:25:10.005Z,8.60
2018-11-29T01:27:38.221Z,8.60
2018-11-29T01:30:12.372Z,8.50
2018-11-29T01:32:40.597Z,8.60
2018-11-29T01:35:09.933Z,8.60
2018-11-29T01:37:38.136Z,8.60
2018-11-29T01:40:17.641Z,8.60
2018-11-29T01:42:51.044Z,8.70
2018-11-29T01:45:19.237Z,8.70
2018-11-29T01:47:47.465Z,8.70
2018-11-29T01:50:15.757Z,8.80
2018-11-29T01:52:44.003Z,8.70
2018-11-29T01:55:12.205Z,8.70
2018-11-29T01:57:40.405Z,8.80
2018-11-29T02:00:23.248Z,8.80
2018-11-29T02:02:52.318Z,8.80
2018-11-29T02:05:20.623Z,8.80
2018-11-29T02:07:48.824Z,8.90
2018-11-29T02:10:22.647Z,8.90
2018-11-29T02:12:52.802Z,8.90
2018-11-29T02:15:21.129Z,8.90
2018-11-29T02:17:49.381Z,8.90
2018-11-29T02:20:18.299Z,9.00
2018-11-29T02:22:46.981Z,9.10
2018-11-29T02:25:15.174Z,9.10
2018-11-29T02:27:43.444Z,9.10
2018-11-29T02:30:18.939Z,9.10
2018-11-29T02:32:47.532Z,9.10
2018-11-29T02:35:15.753Z,9.10
2018-11-29T02:37:44.010Z,9.20
2018-11-29T02:40:13.117Z,9.30
2018-11-29T02:42:41.749Z,9.40
2018-11-29T02:45:26.469Z,9.50
2018-11-29T02:47:54.694Z,9.50
2018-11-29T02:50:22.937Z,9.60
2018-11-29T02:52:51.236Z,9.60
2018-11-29T02:55:19.532Z,9.60
2018-11-29T02:57:47.730Z,9.70
2018-11-29T03:00:16.822Z,9.80
2018-11-29T03:02:45.045Z,9.80
2018-11-29T03:05:13.417Z,9.70
2018-11-29T03:07:41.746Z,9.70
2018-11-29T03:10:11.028Z,9.70
2018-11-29T03:12:39.353Z,9.80
2018-11-29T03:15:10.089Z,9.80
2018-11-29T03:17:38.303Z,9.90
2018-11-29T03:20:08.278Z,9.90
2018-11-29T03:22:36.546Z,9.90
2018-11-29T03:25:07.733Z,10.00
2018-11-29T03:27:35.956Z,10.00
2018-11-29T03:30:04.611Z,10.00
2018-11-29T03:32:32.865Z,10.00
2018-11-29T03:35:01.156Z,10.10
2018-11-29T03:37:29.460Z,10.00
2018-11-29T03:39:57.815Z,10.10
2018-11-29T03:42:26.020Z,10.10
2018-11-29T03:44:54.252Z,10.20
2018-11-29T03:47:22.557Z,10.10
2018-11-29T03:49:50.774Z,10.20
2018-11-29T03:52:19.087Z,10.10
2018-11-29T03:54:47.316Z,10.00
2018-11-29T03:57:15.487Z,10.00
2018-11-29T03:59:43.768Z,10.00
2018-11-29T04:02:11.981Z,10.00
2018-11-29T04:04:40.231Z,10.00
2018-11-29T04:07:08.469Z,10.10
2018-11-29T04:09:36.797Z,10.10
2018-11-29T04:12:05.053Z,10.10
2018-11-29T04:14:33.293Z,10.20
2018-11-29T04:17:01.524Z,10.20
2018-11-29T04:19:29.758Z,10.20
2018-11-29T04:21:58.036Z,10.30
2018-11-29T04:24:26.260Z,10.30
2018-11-29T04:26:54.478Z,10.30
2018-11-29T04:29:22.698Z,10.20
2018-11-29T04:31:50.939Z,10.20
2018-11-29T04:34:19.178Z,10.30
2018-11-29T04:36:47.421Z,10.30
2018-11-29T04:39:15.618Z,10.30
2018-11-29T04:41:43.824Z,10.20
2018-11-29T04:44:12.064Z,10.30
2018-11-29T04:46:44.740Z,10.30
2018-11-29T04:49:12.964Z,10.30
2018-11-29T04:51:41.192Z,10.20
2018-11-29T04:54:09.883Z,10.30
2018-11-29T04:56:38.321Z,10.20
2018-11-29T04:59:06.870Z,10.20
2018-11-29T05:01:35.309Z,10.20
2018-11-29T05:04:03.553Z,10.20
2018-11-29T05:06:31.783Z,10.30
2018-11-29T05:09:00.036Z,10.30
2018-11-29T05:11:28.299Z,10.20
2018-11-29T05:13:56.594Z,10.10
2018-11-29T05:16:24.873Z,10.10
2018-11-29T05:18:53.176Z,10.10
2018-11-29T05:21:21.461Z,10.10
2018-11-29T05:23:49.670Z,10.00
2018-11-29T05:26:17.912Z,10.00
2018-11-29T05:28:46.124Z,10.00
2018-11-29T05:31:14.344Z,10.10
2018-11-29T05:33:42.514Z,10.20
2018-11-29T05:36:10.731Z,10.20
2018-11-29T05:38:38.961Z,10.20
2018-11-29T05:41:07.193Z,10.30
2018-11-29T05:43:35.460Z,10.30
2018-11-29T05:46:03.686Z,10.30
2018-11-29T05:48:32.016Z,10.30
2018-11-29T05:51:00.261Z,10.30
2018-11-29T05:53:28.492Z,10.40
2018-11-29T05:55:56.728Z,10.40
2018-11-29T05:58:24.933Z,10.50
2018-11-29T06:00:53.313Z,10.50
2018-11-29T06:03:21.530Z,10.50
2018-11-29T06:05:49.813Z,10.40
2018-11-29T06:08:18.004Z,10.20
2018-11-29T06:10:46.212Z,10.30
2018-11-29T06:13:14.469Z,10.40
2018-11-29T06:15:42.698Z,10.40
2018-11-29T06:18:10.934Z,10.40
2018-11-29T06:20:39.134Z,10.40
2018-11-29T06:23:07.376Z,10.40
2018-11-29T06:25:35.588Z,10.40
2018-11-29T06:28:03.829Z,10.40
2018-11-29T06:30:32.071Z,10.40
2018-11-29T06:33:00.328Z,10.40
2018-11-29T06:35:28.537Z,10.40
2018-11-29T06:37:56.759Z,10.40
2018-11-29T06:40:24.995Z,10.30
2018-11-29T06:42:53.442Z,10.30
2018-11-29T06:45:21.960Z,10.30
2018-11-29T06:47:51.446Z,10.30
2018-11-29T06:50:19.742Z,10.30
2018-11-29T06:52:49.080Z,10.30
2018-11-29T06:55:19.370Z,10.30
2018-11-29T06:57:47.587Z,10.30
2018-11-29T07:00:23.093Z,10.30
2018-11-29T07:02:51.333Z,10.30
2018-11-29T07:05:19.564Z,10.40
2018-11-29T07:07:47.786Z,10.30
2018-11-29T07:10:16.040Z,10.40
2018-11-29T07:12:44.378Z,10.40
2018-11-29T07:15:13.197Z,10.40
2018-11-29T07:17:42.709Z,10.30
2018-11-29T07:20:14.609Z,10.40
2018-11-29T07:22:42.840Z,10.30
2018-11-29T07:25:11.121Z,10.20
2018-11-29T07:27:39.788Z,10.30
2018-11-29T07:30:22.631Z,10.20
2018-11-29T07:32:50.839Z,10.30
2018-11-29T07:35:19.036Z,10.30
2018-11-29T07:37:47.240Z,10.30
2018-11-29T07:40:16.646Z,10.20
2018-11-29T07:42:45.786Z,10.30
2018-11-29T07:45:15.196Z,10.30
2018-11-29T07:47:43.590Z,10.30
2018-11-29T07:50:14.837Z,10.40
2018-11-29T07:52:43.022Z,10.40
2018-11-29T07:55:15.763Z,10.40
2018-11-29T07:57:44.390Z,10.40
2018-11-29T08:00:14.480Z,10.40
2018-11-29T08:02:42.712Z,10.40
2018-11-29T08:05:11.948Z,10.40
2018-11-29T08:07:41.355Z,10.40
2018-11-29T08:10:10.890Z,10.30
2018-11-29T08:12:39.126Z,10.40
2018-11-29T08:15:09.715Z,10.40
2018-11-29T08:17:37.934Z,10.40
2018-11-29T08:20:10.727Z,10.50
2018-11-29T08:22:39.182Z,10.60
2018-11-29T08:25:08.027Z,10.60
2018-11-29T08:27:36.224Z,10.70
2018-11-29T08:30:06.530Z,10.70
2018-11-29T08:32:34.738Z,10.70
2018-11-29T08:35:02.954Z,10.70
2018-11-29T08:37:31.197Z,10.70
2018-11-29T08:39:59.454Z,10.80
2018-11-29T08:42:27.725Z,10.70
2018-11-29T08:44:55.937Z,10.70
2018-11-29T08:47:24.167Z,10.80
2018-11-29T08:49:52.392Z,10.80
2018-11-29T08:52:20.601Z,10.90
2018-11-29T08:54:48.822Z,10.90
2018-11-29T08:57:17.045Z,10.90
2018-11-29T08:59:45.321Z,10.90
2018-11-29T09:02:13.518Z,11.00
2018-11-29T09:04:41.753Z,10.90
2018-11-29T09:07:09.952Z,11.00
2018-11-29T09:09:38.161Z,11.00
2018-11-29T09:12:06.388Z,11.00
2018-11-29T09:14:34.594Z,11.10
2018-11-29T09:17:02.799Z,11.00
2018-11-29T09:19:31.028Z,11.10
2018-11-29T09:21:59.233Z,11.20
2018-11-29T09:24:27.482Z,11.10
2018-11-29T09:26:55.673Z,11.10
2018-11-29T09:29:23.897Z,11.20
2018-11-29T09:31:52.174Z,11.20
2018-11-29T09:34:20.392Z,11.20
2018-11-29T09:36:48.606Z,11.30
2018-11-29T09:39:16.813Z,11.30
2018-11-29T09:41:45.039Z,11.40
2018-11-29T09:44:13.252Z,11.30
2018-11-29T09:46:41.468Z,11.20
2018-11-29T09:49:09.668Z,11.30
2018-11-29T09:51:37.894Z,11.30
2018-11-29T09:54:06.129Z,11.50
2018-11-29T09:56:34.365Z,11.50
2018-11-29T09:59:02.599Z,11.60
2018-11-29T10:01:30.845Z,11.60
2018-11-29T10:03:59.063Z,11.80
2018-11-29T10:06:27.314Z,11.60
2018-11-29T10:08:55.526Z,11.70
2018-11-29T10:11:24.089Z,11.70
2018-11-29T10:16:19.997Z,11.90
2018-11-29T10:18:48.220Z,11.90
2018-11-29T10:21:16.457Z,12.00
2018-11-29T10:23:44.668Z,11.90
2018-11-29T10:26:12.953Z,11.90
2018-11-29T10:28:41.150Z,11.90
2018-11-29T10:31:09.376Z,12.00
2018-11-29T10:33:37.597Z,11.90
2018-11-29T10:36:06.130Z,11.90
2018-11-29T10:38:34.368Z,12.00
2018-11-29T10:41:02.614Z,11.90
2018-11-29T10:43:30.933Z,12.00
2018-11-29T10:45:59.122Z,12.00
2018-11-29T10:48:27.341Z,12.10
2018-11-29T10:50:55.578Z,12.20
2018-11-29T10:53:23.805Z,12.20
2018-11-29T10:55:52.551Z,12.20
2018-11-29T10:58:20.770Z,12.30
2018-11-29T11:00:54.442Z,12.20
2018-11-29T11:03:22.654Z,12.20
2018-11-29T11:05:52.717Z,12.30
2018-11-29T11:08:21.298Z,12.30
2018-11-29T11:10:49.727Z,12.40
2018-11-29T11:13:17.908Z,12.40
2018-11-29T11:15:46.135Z,12.40
2018-11-29T11:18:15.140Z,12.50
2018-11-29T11:20:43.361Z,12.60
2018-11-29T11:23:11.600Z,12.60
2018-11-29T11:25:39.797Z,12.70
2018-11-29T11:28:08.974Z,12.80
2018-11-29T11:30:39.082Z,12.80
2018-11-29T11:33:07.297Z,12.80
2018-11-29T11:35:35.509Z,12.80
2018-11-29T11:38:03.988Z,12.80
2018-11-29T11:40:32.435Z,12.80
2018-11-29T11:43:05.084Z,12.80
2018-11-29T11:45:28.885Z,12.90
2018-11-29T11:48:03.012Z,12.80
2018-11-29T11:50:25.537Z,12.90
2018-11-29T11:52:54.693Z,12.90
2018-11-29T11:55:29.723Z,13.00
2018-11-29T11:57:51.148Z,13.00
2018-11-29T12:00:23.504Z,13.10
2018-11-29T12:02:54.020Z,13.00
2018-11-29T12:05:22.265Z,12.90
2018-11-29T12:07:50.507Z,13.00
2018-11-29T12:10:18.700Z,13.10
2018-11-29T12:12:46.965Z,13.10
2018-11-29T12:15:15.676Z,13.10
2018-11-29T12:17:44.991Z,13.20
2018-11-29T12:20:14.378Z,13.30
2018-11-29T12:22:42.613Z,13.30
2018-11-29T12:25:12.093Z,13.20
2018-11-29T12:27:40.285Z,13.20
2018-11-29T12:30:17.700Z,13.20
2018-11-29T12:32:46.023Z,13.20
2018-11-29T12:35:14.559Z,13.20
2018-11-29T12:37:42.777Z,13.20
2018-11-29T12:40:12.160Z,13.10
2018-11-29T12:42:40.381Z,13.10
2018-11-29T12:45:09.874Z,13.10
2018-11-29T12:47:38.089Z,13.00
2018-11-29T12:50:09.925Z,12.90
2018-11-29T12:52:38.197Z,12.90
2018-11-29T12:55:07.418Z,12.80
2018-11-29T12:57:35.684Z,12.80
2018-11-29T13:00:04.535Z,12.70
2018-11-29T13:02:32.734Z,12.60
2018-11-29T13:05:00.966Z,12.40
2018-11-29T13:07:29.178Z,12.30
2018-11-29T13:09:57.479Z,12.30
2018-11-29T13:12:25.726Z,12.10
2018-11-29T13:14:54.970Z,12.00
2018-11-29T13:17:23.195Z,12.00
2018-11-29T13:19:51.390Z,12.00
2018-11-29T13:22:19.588Z,11.90
2018-11-29T13:24:47.790Z,11.80
2018-11-29T13:27:16.021Z,11.80
2018-11-29T13:29:44.219Z,11.70
2018-11-29T13:32:12.469Z,11.70
2018-11-29T13:34:40.723Z,11.60
2018-11-29T13:37:08.916Z,11.50
2018-11-29T13:39:37.245Z,11.50
2018-11-29T13:42:05.853Z,11.50
2018-11-29T13:44:34.032Z,11.40
2018-11-29T13:47:02.295Z,11.40
2018-11-29T13:49:30.540Z,11.50
2018-11-29T13:51:58.837Z,11.50
2018-11-29T13:54:27.086Z,11.50
2018-11-29T13:56:55.263Z,11.40
2018-11-29T13:59:23.480Z,11.40
2018-11-29T14:01:52.791Z,11.30
2018-11-29T14:04:20.974Z,11.30
2018-11-29T14:06:49.183Z,11.40
2018-11-29T14:09:17.539Z,11.40
2018-11-29T14:11:45.722Z,11.50
2018-11-29T14:14:13.959Z,11.50
2018-11-29T14:16:42.154Z,11.50
2018-11-29T14:19:10.372Z,11.60
2018-11-29T14:21:38.581Z,11.60
2018-11-29T14:24:06.798Z,11.60
2018-11-29T14:26:35.029Z,11.60
2018-11-29T14:29:03.238Z,11.70
2018-11-29T14:31:31.481Z,11.70
2018-11-29T14:33:59.699Z,11.70
2018-11-29T14:36:27.905Z,11.70
2018-11-29T14:38:56.110Z,11.70
2018-11-29T14:41:24.345Z,11.60
2018-11-29T14:43:52.834Z,11.60
2018-11-29T14:46:21.074Z,11.60
2018-11-29T14:48:49.274Z,11.60
2018-11-29T14:51:17.509Z,11.50
2018-11-29T14:53:45.712Z,11.60
2018-11-29T14:56:13.929Z,11.60
2018-11-29T14:58:42.133Z,11.50
2018-11-29T15:01:10.365Z,11.50
2018-11-29T15:03:38.525Z,11.60
2018-11-29T15:06:07.249Z,11.50
2018-11-29T15:08:35.465Z,11.50
2018-11-29T15:11:03.632Z,11.40
2018-11-29T15:13:31.846Z,11.40
2018-11-29T15:16:00.110Z,11.30
2018-11-29T15:18:28.331Z,11.30
2018-11-29T15:20:56.592Z,11.30
2018-11-29T15:23:24.825Z,11.30
2018-11-29T15:25:53.105Z,11.30
2018-11-29T15:28:21.333Z,11.20
2018-11-29T15:30:49.538Z,11.10
2018-11-29T15:33:17.760Z,11.10
2018-11-29T15:35:45.962Z,11.10
2018-11-29T15:38:14.171Z,11.10
2018-11-29T15:40:42.394Z,11.20
2018-11-29T15:43:10.634Z,11.20
2018-11-29T15:45:38.845Z,11.20
2018-11-29T15:48:07.046Z,11.20
2018-11-29T15:50:35.273Z,11.20
2018-11-29T15:53:03.523Z,11.20
2018-11-29T15:55:31.755Z,11.20
2018-11-29T15:57:59.955Z,11.30
2018-11-29T16:00:29.180Z,11.30
2018-11-29T16:03:00.606Z,11.30
2018-11-29T16:05:28.841Z,11.30
2018-11-29T16:07:57.060Z,11.40
2018-11-29T16:10:26.250Z,11.40
2018-11-29T16:12:54.637Z,11.40
2018-11-29T16:15:23.098Z,11.30
2018-11-29T16:17:52.603Z,11.40
2018-11-29T16:20:25.933Z,11.40
2018-11-29T16:22:54.218Z,11.50
2018-11-29T16:25:22.490Z,11.40
2018-11-29T16:27:50.832Z,11.50
2018-11-29T16:30:26.824Z,11.50
2018-11-29T16:32:56.188Z,11.50
2018-11-29T16:35:24.901Z,11.40
2018-11-29T16:37:53.508Z,11.40
2018-11-29T16:40:21.827Z,11.40
2018-11-29T16:42:50.129Z,11.40
2018-11-29T16:45:18.330Z,11.50
2018-11-29T16:47:46.569Z,11.40
2018-11-29T16:50:15.771Z,11.40
2018-11-29T16:52:43.992Z,11.30
2018-11-29T16:55:12.810Z,11.30
2018-11-29T16:57:44.309Z,11.20
2018-11-29T17:00:15.574Z,11.20
2018-11-29T17:02:44.078Z,11.20
2018-11-29T17:05:13.476Z,11.20
2018-11-29T17:07:41.737Z,11.20
2018-11-29T17:10:11.356Z,11.20
2018-11-29T17:12:39.906Z,11.10
2018-11-29T17:15:10.114Z,11.10
2018-11-29T17:17:38.690Z,11.10
2018-11-29T17:20:09.677Z,11.10
2018-11-29T17:22:37.937Z,11.10
2018-11-29T17:25:07.710Z,11.10
2018-11-29T17:27:35.928Z,11.10
2018-11-29T17:30:04.766Z,11.10
2018-11-29T17:32:33.050Z,11.10
2018-11-29T17:35:01.238Z,11.20
2018-11-29T17:37:29.490Z,11.30
2018-11-29T17:39:57.731Z,11.20
2018-11-29T17:42:25.953Z,11.20
2018-11-29T17:44:54.353Z,11.20
2018-11-29T17:47:22.542Z,11.30
2018-11-29T17:49:50.784Z,11.30
2018-11-29T17:52:19.005Z,11.30
2018-11-29T17:54:47.303Z,11.30
2018-11-29T17:57:15.489Z,11.30
2018-11-29T17:59:43.724Z,11.30
2018-11-29T18:02:11.910Z,11.30
2018-11-29T18:04:40.142Z,11.30
2018-11-29T18:07:08.354Z,11.30
2018-11-29T18:09:36.586Z,11.30
2018-11-29T18:12:05.243Z,11.30
2018-11-29T18:14:33.446Z,11.40
2018-11-29T18:17:01.711Z,11.30
2018-11-29T18:19:29.943Z,11.30
2018-11-29T18:21:58.182Z,11.30
2018-11-29T18:24:26.738Z,11.30
2018-11-29T18:26:55.080Z,11.30
2018-11-29T18:29:23.336Z,11.30
2018-11-29T18:31:51.536Z,11.30
2018-11-29T18:34:19.740Z,11.30
2018-11-29T18:36:47.964Z,11.30
2018-11-29T18:39:16.157Z,11.30
2018-11-29T18:41:44.417Z,11.30
2018-11-29T18:44:12.610Z,11.20
2018-11-29T18:46:40.818Z,11.10
2018-11-29T18:49:09.046Z,11.10
2018-11-29T18:51:37.246Z,11.00
2018-11-29T18:54:05.543Z,11.00
2018-11-29T18:56:33.733Z,11.00
2018-11-29T18:59:01.923Z,11.00
2018-11-29T19:01:30.140Z,10.90
2018-11-29T19:03:58.401Z,10.90
2018-11-29T19:06:26.742Z,10.90
2018-11-29T19:08:55.042Z,10.90
2018-11-29T19:11:23.297Z,10.80
2018-11-29T19:13:51.484Z,10.70
2018-11-29T19:16:19.688Z,10.60
2018-11-29T19:18:47.882Z,10.60
2018-11-29T19:21:16.094Z,10.50
2018-11-29T19:23:44.295Z,10.50
2018-11-29T19:26:12.536Z,10.50
2018-11-29T19:28:40.787Z,10.40
2018-11-29T19:31:08.997Z,10.40
2018-11-29T19:33:37.210Z,10.40
2018-11-29T19:36:05.650Z,10.30
2018-11-29T19:38:33.882Z,10.30
2018-11-29T19:41:02.127Z,10.40
2018-11-29T19:43:30.417Z,10.40
2018-11-29T19:45:58.644Z,10.50
2018-11-29T19:48:26.871Z,10.60
2018-11-29T19:50:55.261Z,10.70
2018-11-29T19:53:24.878Z,10.80
2018-11-29T19:55:56.565Z,10.90
2018-11-29T19:58:24.768Z,10.90
2018-11-29T20:00:53.123Z,11.00
2018-11-29T20:03:21.346Z,10.90
2018-11-29T20:05:49.546Z,10.90
2018-11-29T20:08:17.785Z,11.00
2018-11-29T20:10:46.038Z,11.10
2018-11-29T20:13:14.990Z,11.10
2018-11-29T20:15:52.396Z,11.00
2018-11-29T20:18:20.620Z,11.10
2018-11-29T20:20:48.825Z,11.10
2018-11-29T20:23:17.038Z,11.10
2018-11-29T20:25:45.957Z,11.10
2018-11-29T20:28:14.356Z,11.10
2018-11-29T20:30:42.551Z,11.10
2018-11-29T20:33:10.781Z,11.10
2018-11-29T20:35:39.024Z,11.00
2018-11-29T20:38:07.401Z,11.10
2018-11-29T20:40:37.348Z,11.10
2018-11-29T20:43:05.917Z,11.10
2018-11-29T20:45:36.800Z,11.20
2018-11-29T20:48:11.950Z,11.20
2018-11-29T20:50:40.259Z,11.20
2018-11-29T20:53:09.026Z,11.30
2018-11-29T20:55:37.494Z,11.30
2018-11-29T20:58:06.914Z,11.40
2018-11-29T21:00:35.150Z,11.50
2018-11-29T21:03:03.495Z,11.40
2018-11-29T21:05:31.814Z,11.40
2018-11-29T21:08:06.191Z,11.50
2018-11-29T21:10:34.603Z,11.40
2018-11-29T21:13:06.523Z,11.40
2018-11-29T21:15:37.855Z,11.40
2018-11-29T21:18:07.590Z,11.40
2018-11-29T21:20:36.142Z,11.40
2018-11-29T21:23:04.758Z,11.40
2018-11-29T21:25:33.084Z,11.40
2018-11-29T21:28:01.329Z,11.40
2018-11-29T21:30:29.540Z,11.40
2018-11-29T21:32:57.817Z,11.30
2018-11-29T21:35:26.022Z,11.30
2018-11-29T21:37:54.534Z,11.30
2018-11-29T21:40:26.200Z,11.30
2018-11-29T21:42:54.513Z,11.30
2018-11-29T21:45:22.749Z,11.20
2018-11-29T21:47:50.977Z,11.10
2018-11-29T21:50:19.174Z,11.20
2018-11-29T21:52:47.480Z,11.10
2018-11-29T21:55:15.710Z,11.00
2018-11-29T21:57:43.949Z,11.00
2018-11-29T22:00:15.480Z,11.00
2018-11-29T22:02:47.998Z,11.00
2018-11-29T22:05:16.212Z,11.00
2018-11-29T22:07:44.561Z,10.90
2018-11-29T22:10:12.737Z,11.00
2018-11-29T22:12:40.941Z,10.90
2018-11-29T22:15:10.357Z,11.00
2018-11-29T22:17:45.590Z,11.00
2018-11-29T22:20:14.018Z,10.90
2018-11-29T22:22:42.217Z,11.00
2018-11-29T22:25:10.456Z,10.80
2018-11-29T22:27:40.301Z,10.70
2018-11-29T22:30:08.743Z,10.70
2018-11-29T22:32:37.057Z,10.70
2018-11-29T22:35:06.149Z,10.70
2018-11-29T22:37:34.445Z,10.70
2018-11-29T22:40:02.702Z,10.70
2018-11-29T22:42:30.910Z,10.70
2018-11-29T22:44:59.301Z,10.70
2018-11-29T22:47:27.514Z,10.80
2018-11-29T22:49:55.797Z,10.80
2018-11-29T22:52:23.969Z,10.80
2018-11-29T22:54:52.228Z,10.80
2018-11-29T22:57:20.513Z,10.80
2018-11-29T22:59:48.825Z,10.70
2018-11-29T23:02:17.150Z,10.70
2018-11-29T23:04:45.474Z,10.80
2018-11-29T23:07:13.710Z,10.80
2018-11-29T23:09:41.984Z,10.70
2018-11-29T23:12:10.202Z,10.80
2018-11-29T23:14:38.410Z,10.80
2018-11-29T23:17:06.675Z,10.90
2018-11-29T23:19:34.981Z,10.90
2018-11-29T23:22:03.221Z,10.90
2018-11-29T23:24:31.493Z,10.90
2018-11-29T23:26:59.743Z,11.00
2018-11-29T23:29:28.035Z,11.00
2018-11-29T23:31:56.269Z,11.00
2018-11-29T23:34:24.602Z,11.00
2018-11-29T23:36:52.841Z,11.00
2018-11-29T23:39:21.072Z,11.00
2018-11-29T23:41:49.434Z,11.00
2018-11-29T23:44:17.676Z,11.00
2018-11-29T23:46:45.947Z,11.00
2018-11-29T23:49:14.146Z,11.00
2018-11-29T23:51:42.425Z,11.00
2018-11-29T23:54:10.759Z,11.00
2018-11-29T23:56:38.947Z,10.90
2018-11-29T23:59:07.265Z,10.90
